Qway, New Mexico
Current Conditions -  °F | °C
As of 10:53 AM on Monday 20 Oct 2014 (Local Time) from KTCC Reporting Station
Clear Clear  
Wind Chill: 69°   Ceiling: Unl
Heat Index: 69°   Visibility: 10mi
Dew Point: 46°   Wind: 6mph
Humidity: 44%   Direction: 20°NNE
Pressure: 30.16"   Gusts: NA
Location:  34.9519°N, 103.772°W
Report Text: KTCC 201653Z AUTO 02005KT 10SM CLR 21/08 A3016 RMK AO2 SLP171 T02060078
Loading
Personal Weather Stations






























Interactive Weather Map
Tropical Storm Tracking
New forecast layout! Learn more

10-Day Weather Forecast

Advertisements
Track Severe Weather on mobile